Terminal Aerodrome Forecast
Issued by NWS

Current Version | Previous Version | Text Only | Print | Product List | Glossary On
Versions: 1 2 3 4 5 6 7 8 9 10 11 12 13 14 15
000
FTAK31 PANC 240532
TAFAAQ
TAF
PAAQ 240532Z 2406/2506 36005KT P6SM OVC040
     FM241200 02005KT P6SM SCT025 OVC050
     FM241700 02012KT P6SM VCSH SCT025 BKN050 OVC100
     FM242100 05018KT P6SM OVC080=

USA.gov is the U.S. government's official web portal to all federal, state and local government web resources and services.